createdAt,value
2022-08-03T00:01:03.932Z,100131.41
2022-08-03T00:03:06.402Z,100136.88
2022-08-03T00:05:08.810Z,100134.91
2022-08-03T00:07:10.929Z,100131.50
2022-08-03T00:09:12.931Z,100151.63
2022-08-03T00:11:15.251Z,100156.59
2022-08-03T00:13:17.302Z,100131.00
2022-08-03T00:15:19.621Z,100153.81
2022-08-03T00:17:22.033Z,100144.69
2022-08-03T00:19:25.627Z,100147.09
2022-08-03T00:21:28.727Z,100144.44
2022-08-03T00:23:52.282Z,100163.00
2022-08-03T00:25:53.257Z,100156.34
2022-08-03T00:27:55.361Z,100159.44
2022-08-03T00:30:00.253Z,100136.31
2022-08-03T00:32:02.809Z,100159.44
2022-08-03T00:34:06.131Z,100160.44
2022-08-03T00:36:09.176Z,100168.06
2022-08-03T00:38:11.280Z,100165.16
2022-08-03T00:40:16.600Z,100150.69
2022-08-03T00:42:19.147Z,100159.44
2022-08-03T00:44:21.198Z,100159.16
2022-08-03T00:46:23.339Z,100154.19
2022-08-03T00:48:33.099Z,100153.25
2022-08-03T00:50:42.002Z,100157.97
2022-08-03T00:52:44.746Z,100148.88
2022-08-03T00:54:47.106Z,100127.00
2022-08-03T00:56:59.821Z,100133.28
2022-08-03T00:59:04.289Z,100138.50
2022-08-03T01:01:06.630Z,100137.38
2022-08-03T01:03:10.946Z,100149.75
2022-08-03T01:05:14.097Z,100151.72
2022-08-03T01:07:39.537Z,100152.72
2022-08-03T01:10:15.766Z,100142.63
2022-08-03T01:12:35.212Z,100144.06
2022-08-03T01:15:04.433Z,100143.31
2022-08-03T01:17:21.453Z,100136.31
2022-08-03T01:19:46.156Z,100138.31
2022-08-03T01:22:17.806Z,100146.91
2022-08-03T01:24:57.041Z,100146.88
2022-08-03T01:27:09.526Z,100141.34
2022-08-03T01:29:31.584Z,100146.41
2022-08-03T01:32:53.470Z,100134.81
2022-08-03T01:34:22.127Z,100144.22
2022-08-03T01:36:34.313Z,100134.72
2022-08-03T01:38:45.423Z,100135.63
2022-08-03T01:40:54.006Z,100126.84
2022-08-03T01:43:04.901Z,100134.50
2022-08-03T01:45:11.438Z,100120.59
2022-08-03T01:47:16.650Z,100116.47
2022-08-03T01:49:27.631Z,100123.88
2022-08-03T01:51:57.907Z,100133.66
2022-08-03T01:54:10.661Z,100132.69
2022-08-03T01:56:40.974Z,100111.09
2022-08-03T01:58:51.057Z,100110.78
2022-08-03T02:01:06.166Z,100125.28
2022-08-03T02:03:22.827Z,100133.66
2022-08-03T02:05:40.016Z,100120.75
2022-08-03T02:08:15.593Z,100105.97
2022-08-03T02:11:17.047Z,100119.00
2022-08-03T02:17:10.271Z,100113.63
2022-08-03T02:23:29.254Z,100091.63
2022-08-03T02:26:02.290Z,100112.78
2022-08-03T02:29:39.331Z,100086.81
2022-08-03T02:32:51.847Z,100101.59
2022-08-03T02:47:55.813Z,100094.63
2022-08-03T02:52:06.573Z,100126.31
2022-08-03T03:32:30.590Z,100126.03
2022-08-03T03:43:46.623Z,100120.91
2022-08-03T03:46:35.963Z,100137.22
2022-08-03T03:48:39.973Z,100135.69
2022-08-03T03:50:44.564Z,100128.28
2022-08-03T03:52:47.033Z,100123.34
2022-08-03T03:58:07.628Z,100142.53
2022-08-03T04:00:12.913Z,100139.25
2022-08-03T04:02:17.518Z,100136.81
2022-08-03T04:17:28.728Z,100131.13
2022-08-03T04:23:22.697Z,100158.97
2022-08-03T04:25:30.400Z,100152.19
2022-08-03T04:38:25.813Z,100158.16
2022-08-03T04:40:40.344Z,100152.66
2022-08-03T04:42:54.149Z,100151.63
2022-08-03T04:45:19.395Z,100136.19
2022-08-03T04:50:12.506Z,100162.84
2022-08-03T04:53:06.887Z,100162.53
2022-08-03T04:55:43.352Z,100155.31
2022-08-03T04:59:17.328Z,100146.78
2022-08-03T05:01:23.335Z,100136.56
2022-08-03T05:03:51.720Z,100133.72
2022-08-03T05:06:09.479Z,100161.50
2022-08-03T05:08:12.577Z,100152.25
2022-08-03T05:10:17.385Z,100156.03
2022-08-03T05:12:20.431Z,100150.53
2022-08-03T05:14:28.205Z,100163.16
2022-08-03T05:16:30.762Z,100154.72
2022-08-03T05:18:44.414Z,100165.03
2022-08-03T05:20:52.726Z,100166.16
2022-08-03T05:22:55.130Z,100150.56
2022-08-03T05:24:57.342Z,100156.44
2022-08-03T05:27:18.540Z,100144.44
2022-08-03T05:29:54.086Z,100160.44
2022-08-03T05:33:00.894Z,100165.50
2022-08-03T05:36:26.651Z,100160.88
2022-08-03T05:39:02.600Z,100162.06
2022-08-03T05:41:22.540Z,100155.66
2022-08-03T05:50:30.068Z,100147.00
2022-08-03T05:52:32.139Z,100171.16
2022-08-03T05:55:02.221Z,100156.41
2022-08-03T05:57:04.920Z,100169.38
2022-08-03T05:59:22.707Z,100178.72
2022-08-03T06:01:50.257Z,100173.63
2022-08-03T06:04:13.336Z,100164.97
2022-08-03T06:06:16.036Z,100148.94
2022-08-03T06:08:24.774Z,100150.41
2022-08-03T06:13:49.818Z,100179.38
2022-08-03T06:15:55.592Z,100167.06
2022-08-03T06:19:05.176Z,100154.84
2022-08-03T06:21:45.358Z,100177.41
2022-08-03T06:23:55.483Z,100173.06
2022-08-03T06:26:04.358Z,100176.84
2022-08-03T06:28:35.297Z,100184.50
2022-08-03T06:30:39.217Z,100178.88
2022-08-03T06:32:43.199Z,100180.94
2022-08-03T06:34:57.130Z,100182.03
2022-08-03T06:37:02.378Z,100188.75
2022-08-03T06:39:05.882Z,100183.69
2022-08-03T06:43:31.497Z,100189.31
2022-08-03T06:45:42.448Z,100188.22
2022-08-03T06:48:12.529Z,100190.72
2022-08-03T06:50:52.925Z,100196.47
2022-08-03T06:52:59.642Z,100187.91
2022-08-03T06:55:12.423Z,100184.22
2022-08-03T06:57:39.383Z,100179.09
2022-08-03T07:00:16.266Z,100194.25
2022-08-03T07:02:41.658Z,100177.97
2022-08-03T07:05:20.873Z,100183.50
2022-08-03T07:07:45.309Z,100191.50
2022-08-03T07:09:58.393Z,100179.09
2022-08-03T07:12:16.063Z,100187.09
2022-08-03T07:14:28.948Z,100191.06
2022-08-03T07:16:39.366Z,100196.88
2022-08-03T07:18:49.799Z,100177.25
2022-08-03T07:21:01.387Z,100180.31
2022-08-03T07:23:05.280Z,100181.13
2022-08-03T07:25:29.887Z,100181.09
2022-08-03T07:27:51.787Z,100179.28
2022-08-03T07:30:08.498Z,100192.50
2022-08-03T07:32:13.379Z,100187.63
2022-08-03T07:35:01.571Z,100182.31
2022-08-03T07:37:17.126Z,100185.75
2022-08-03T07:42:44.371Z,100184.13
2022-08-03T07:45:02.613Z,100180.34
2022-08-03T07:47:46.190Z,100188.09
2022-08-03T07:50:10.337Z,100181.19
2022-08-03T07:55:44.095Z,100186.22
2022-08-03T07:58:14.784Z,100176.25
2022-08-03T08:01:07.174Z,100186.47
2022-08-03T08:03:58.990Z,100190.97
2022-08-03T08:09:46.083Z,100187.06
2022-08-03T08:18:39.360Z,100186.47
2022-08-03T08:21:52.933Z,100189.91
2022-08-03T08:38:07.479Z,100188.78
2022-08-03T08:40:49.398Z,100181.47
2022-08-03T08:43:19.999Z,100173.97
2022-08-03T09:00:16.477Z,100172.28
2022-08-03T09:02:36.577Z,100179.00
2022-08-03T09:14:39.282Z,100170.22
2022-08-03T09:17:50.703Z,100172.97
2022-08-03T09:20:10.212Z,100173.72
2022-08-03T09:26:05.654Z,100172.66
2022-08-03T09:28:56.556Z,100173.91
2022-08-03T09:34:11.992Z,100165.63
2022-08-03T09:36:55.873Z,100172.78
2022-08-03T09:54:47.440Z,100164.81
2022-08-03T09:57:01.457Z,100157.84
2022-08-03T09:59:41.334Z,100166.41
2022-08-03T10:02:03.611Z,100163.75
2022-08-03T10:04:17.060Z,100156.66
2022-08-03T10:06:36.145Z,100151.53
2022-08-03T10:09:13.151Z,100157.72
2022-08-03T10:11:42.129Z,100163.63
2022-08-03T10:13:58.047Z,100160.16
2022-08-03T10:16:21.603Z,100148.84
2022-08-03T10:18:48.210Z,100151.44
2022-08-03T10:21:11.521Z,100157.38
2022-08-03T10:23:27.829Z,100152.13
2022-08-03T10:28:19.872Z,100141.81
2022-08-03T10:30:40.669Z,100127.31
2022-08-03T10:33:50.277Z,100136.28
2022-08-03T10:35:41.952Z,100127.78
2022-08-03T10:38:03.881Z,100133.78
2022-08-03T10:40:51.715Z,100140.38
2022-08-03T10:42:54.565Z,100142.03
2022-08-03T10:45:06.668Z,100127.59
2022-08-03T10:47:11.436Z,100134.47
2022-08-03T10:51:38.493Z,100128.16
2022-08-03T10:54:10.492Z,100125.41
2022-08-03T10:56:49.527Z,100138.50
2022-08-03T10:58:57.497Z,100135.28
2022-08-03T11:01:00.643Z,100124.41
2022-08-03T11:03:14.213Z,100133.25
2022-08-03T11:05:28.506Z,100139.06
2022-08-03T11:07:31.544Z,100126.78
2022-08-03T11:09:58.572Z,100126.22
2022-08-03T11:12:34.875Z,100131.19
2022-08-03T11:17:31.833Z,100123.63
2022-08-03T11:19:58.331Z,100128.25
2022-08-03T11:22:08.773Z,100107.53
2022-08-03T11:24:27.633Z,100120.28
2022-08-03T11:26:30.712Z,100116.09
2022-08-03T11:28:35.574Z,100114.13
2022-08-03T11:30:47.193Z,100118.84
2022-08-03T11:32:54.622Z,100112.66
2022-08-03T11:35:35.613Z,100113.94
2022-08-03T11:38:03.415Z,100103.44
2022-08-03T11:40:34.053Z,100117.84
2022-08-03T11:42:36.243Z,100109.03
2022-08-03T11:44:42.231Z,100106.03
2022-08-03T11:46:52.852Z,100102.47
2022-08-03T11:49:09.279Z,100109.91
2022-08-03T11:51:31.383Z,100102.94
2022-08-03T11:53:42.162Z,100104.19
2022-08-03T11:55:58.652Z,100108.88
2022-08-03T11:59:01.644Z,100094.03
2022-08-03T12:00:29.783Z,100092.56
2022-08-03T12:02:33.933Z,100104.03
2022-08-03T12:04:53.638Z,100097.56
2022-08-03T12:07:01.637Z,100090.19
2022-08-03T12:09:17.374Z,100068.09
2022-08-03T12:11:23.893Z,100076.88
2022-08-03T12:14:44.815Z,100088.22
2022-08-03T12:15:56.342Z,100086.47
2022-08-03T12:17:58.613Z,100078.28
2022-08-03T12:20:02.282Z,100073.66
2022-08-03T12:22:04.913Z,100069.59
2022-08-03T12:24:07.382Z,100075.53
2022-08-03T12:26:10.558Z,100084.47
2022-08-03T12:28:31.794Z,100065.44
2022-08-03T12:30:40.634Z,100064.09
2022-08-03T12:32:44.573Z,100068.38
2022-08-03T12:34:48.676Z,100080.28
2022-08-03T12:36:55.844Z,100043.53
2022-08-03T12:39:16.374Z,100055.88
2022-08-03T12:41:30.473Z,100067.47
2022-08-03T12:43:39.547Z,100064.19
2022-08-03T12:45:42.553Z,100065.34
2022-08-03T12:47:59.909Z,100061.31
2022-08-03T12:50:02.107Z,100062.69
2022-08-03T12:52:07.630Z,100061.13
2022-08-03T12:54:17.556Z,100066.88
2022-08-03T12:56:20.463Z,100057.81
2022-08-03T12:58:35.483Z,100064.19
2022-08-03T13:00:38.168Z,100068.63
2022-08-03T13:02:41.014Z,100051.41
2022-08-03T13:04:54.055Z,100051.41
2022-08-03T13:07:15.849Z,100053.16
2022-08-03T13:09:20.463Z,100042.03
2022-08-03T13:11:55.671Z,100036.34
2022-08-03T13:13:54.392Z,100054.53
2022-08-03T13:15:56.574Z,100053.00
2022-08-03T13:17:59.394Z,100054.13
2022-08-03T13:20:04.582Z,100058.13
2022-08-03T13:22:18.413Z,100062.47
2022-08-03T13:24:21.053Z,100056.75
2022-08-03T13:26:38.534Z,100063.44
2022-08-03T13:28:41.309Z,100053.78
2022-08-03T13:30:44.832Z,100058.63
2022-08-03T13:32:47.212Z,100064.25
2022-08-03T13:34:50.233Z,100063.44
2022-08-03T13:37:10.078Z,100039.75
2022-08-03T13:39:14.031Z,100036.91
2022-08-03T13:41:17.003Z,100052.94
2022-08-03T13:45:53.591Z,100036.09
2022-08-03T13:48:01.762Z,100034.44
2022-08-03T13:50:05.107Z,100036.72
2022-08-03T13:52:07.942Z,100043.22
2022-08-03T13:54:10.414Z,100042.06
2022-08-03T13:56:12.963Z,100038.22
2022-08-03T13:58:15.668Z,100024.25
2022-08-03T14:00:27.005Z,100044.34
2022-08-03T14:02:31.455Z,100041.44
2022-08-03T14:04:33.804Z,100024.66
2022-08-03T14:06:36.004Z,100019.00
2022-08-03T14:08:38.725Z,100015.84
2022-08-03T14:10:44.008Z,100024.94
2022-08-03T14:12:46.713Z,100034.81
2022-08-03T14:14:49.135Z,100017.41
2022-08-03T14:16:51.634Z,100030.63
2022-08-03T14:18:57.664Z,100020.91
2022-08-03T14:21:07.185Z,100022.25
2022-08-03T14:23:10.014Z,100014.03
2022-08-03T14:25:12.494Z,100013.47
2022-08-03T14:27:16.646Z,100019.22
2022-08-03T14:29:18.853Z,100016.44
2022-08-03T14:32:09.428Z,100011.94
2022-08-03T14:33:47.215Z,100020.47
2022-08-03T14:36:05.974Z,100012.69
2022-08-03T14:38:08.256Z,100022.50
2022-08-03T14:40:13.987Z,100014.53
2022-08-03T14:42:18.317Z,100020.16
2022-08-03T14:44:22.693Z,99999.03
2022-08-03T14:46:25.137Z,100014.97
2022-08-03T14:50:30.922Z,100015.03
2022-08-03T14:51:27.460Z,100015.72
2022-08-03T14:54:03.011Z,100011.34
2022-08-03T14:56:12.724Z,100009.84
2022-08-03T14:58:39.772Z,100002.63
2022-08-03T15:01:02.114Z,100008.16
2022-08-03T15:03:17.500Z,100003.41
2022-08-03T15:05:30.748Z,99998.88
2022-08-03T15:10:27.115Z,99998.88
2022-08-03T15:12:58.882Z,99995.63
2022-08-03T15:15:19.363Z,99994.03
2022-08-03T15:17:28.854Z,99991.69
2022-08-03T15:20:03.459Z,99991.38
2022-08-03T15:22:07.708Z,99985.75
2022-08-03T15:24:42.891Z,99990.19
2022-08-03T15:27:01.599Z,99984.16
2022-08-03T15:30:05.484Z,99993.22
2022-08-03T15:31:42.729Z,99976.03
2022-08-03T15:33:53.471Z,99972.66
2022-08-03T15:35:57.912Z,99975.63
2022-08-03T15:38:10.298Z,99977.44
2022-08-03T15:40:25.565Z,99983.81
2022-08-03T15:43:14.812Z,99981.91
2022-08-03T15:45:27.875Z,99982.06
2022-08-03T15:47:41.117Z,99970.44
2022-08-03T15:49:54.865Z,99981.66
2022-08-03T15:52:30.880Z,99972.78
2022-08-03T15:54:36.696Z,99984.31
2022-08-03T15:56:45.040Z,99967.06
2022-08-03T15:59:09.294Z,99975.28
2022-08-03T16:01:19.786Z,99975.28
2022-08-03T16:03:23.668Z,99975.44
2022-08-03T16:05:26.352Z,99969.25
2022-08-03T16:07:28.713Z,99976.53
2022-08-03T16:09:42.831Z,99970.75
2022-08-03T16:11:48.283Z,99968.28
2022-08-03T16:14:13.484Z,99972.63
2022-08-03T16:16:13.554Z,99965.44
2022-08-03T16:18:24.442Z,99962.00
2022-08-03T16:20:34.964Z,99951.53
2022-08-03T16:22:46.823Z,99955.75
2022-08-03T16:24:50.889Z,99953.13
2022-08-03T16:27:17.696Z,99962.13
2022-08-03T16:29:38.363Z,99955.06
2022-08-03T16:31:41.612Z,99954.03
2022-08-03T16:33:56.149Z,99954.16
2022-08-03T16:35:58.624Z,99951.72
2022-08-03T16:38:02.838Z,99956.19
2022-08-03T16:40:47.481Z,99948.25
2022-08-03T16:42:53.192Z,99951.66
2022-08-03T16:44:57.701Z,99950.72
2022-08-03T16:47:02.613Z,99957.69
2022-08-03T16:49:05.012Z,99950.50
2022-08-03T16:51:07.624Z,99953.25
2022-08-03T16:53:15.559Z,99954.56
2022-08-03T16:55:48.688Z,99944.38
2022-08-03T16:57:59.118Z,99961.66
2022-08-03T17:00:03.693Z,99951.44
2022-08-03T17:02:10.110Z,99945.81
2022-08-03T17:04:15.871Z,99945.81
2022-08-03T17:06:20.015Z,99942.19
2022-08-03T17:08:26.528Z,99958.03
2022-08-03T17:10:30.133Z,99954.88
2022-08-03T17:12:32.710Z,99959.41
2022-08-03T17:14:51.271Z,99964.56
2022-08-03T17:17:24.795Z,99955.31
2022-08-03T17:19:37.665Z,99959.38
2022-08-03T17:22:06.010Z,99965.16
2022-08-03T17:24:41.487Z,99966.31
2022-08-03T17:26:49.832Z,99963.97
2022-08-03T17:28:57.487Z,99972.44
2022-08-03T17:31:23.382Z,99964.72
2022-08-03T17:33:38.032Z,99969.66
2022-08-03T17:35:58.615Z,99972.34
2022-08-03T17:38:10.389Z,99966.16
2022-08-03T17:40:19.355Z,99973.31
2022-08-03T17:42:31.124Z,99969.84
2022-08-03T17:44:46.393Z,99973.03
2022-08-03T17:47:02.008Z,99966.00
2022-08-03T17:49:24.886Z,99970.59
2022-08-03T17:55:50.464Z,99971.09
2022-08-03T17:57:29.127Z,99979.56
2022-08-03T18:00:18.678Z,99985.28
2022-08-03T18:03:10.082Z,99986.97
2022-08-03T18:05:21.823Z,99989.09
2022-08-03T18:07:43.846Z,99980.66
2022-08-03T18:10:11.318Z,99974.78
2022-08-03T18:12:52.844Z,99985.41
2022-08-03T18:15:20.818Z,99981.59
2022-08-03T18:17:58.152Z,99983.72
2022-08-03T18:20:02.156Z,99985.41
2022-08-03T18:22:21.646Z,99985.91
2022-08-03T18:24:55.641Z,99982.97
2022-08-03T18:27:55.314Z,99989.88
2022-08-03T18:30:20.497Z,99988.00
2022-08-03T18:32:35.118Z,99985.66
2022-08-03T18:35:06.033Z,99991.13
2022-08-03T18:37:51.796Z,99999.78
2022-08-03T18:40:22.538Z,99996.63
2022-08-03T18:42:32.173Z,99991.78
2022-08-03T18:45:56.079Z,100001.88
2022-08-03T18:50:49.716Z,100007.09
2022-08-03T18:54:03.942Z,100007.75
2022-08-03T18:56:58.848Z,100011.31
2022-08-03T19:00:24.438Z,100014.06
2022-08-03T19:02:57.224Z,100010.66
2022-08-03T19:05:10.614Z,100008.91
2022-08-03T19:07:22.150Z,100017.75
2022-08-03T19:09:39.798Z,100018.97
2022-08-03T19:12:12.796Z,100019.97
2022-08-03T19:14:28.689Z,100015.50
2022-08-03T19:16:41.267Z,100013.78
2022-08-03T19:18:52.416Z,100025.53
2022-08-03T19:21:12.830Z,100015.84
2022-08-03T19:24:10.143Z,100017.84
2022-08-03T19:26:30.535Z,100012.69
2022-08-03T19:28:38.436Z,100013.88
2022-08-03T19:30:46.158Z,100012.19
2022-08-03T19:32:55.844Z,100011.41
2022-08-03T19:35:01.711Z,100011.59
2022-08-03T19:37:04.984Z,100018.13
2022-08-03T19:39:09.236Z,100012.84
2022-08-03T19:41:15.003Z,100012.19
2022-08-03T19:43:23.164Z,100015.97
2022-08-03T19:46:05.237Z,100014.50
2022-08-03T19:48:09.450Z,100017.25
2022-08-03T19:50:14.712Z,100018.94
2022-08-03T19:52:31.143Z,100019.75
2022-08-03T19:54:52.899Z,100020.88
2022-08-03T19:56:57.738Z,100014.38
2022-08-03T19:59:02.075Z,100018.88
2022-08-03T20:03:43.336Z,100027.84
2022-08-03T20:05:52.379Z,100027.56
2022-08-03T20:08:01.298Z,100029.66
2022-08-03T20:10:06.099Z,100024.19
2022-08-03T20:12:11.652Z,100027.97
2022-08-03T20:14:26.200Z,100021.22
2022-08-03T20:16:29.464Z,100027.72
2022-08-03T20:18:38.920Z,100017.97
2022-08-03T20:20:41.994Z,100022.78
2022-08-03T20:22:48.087Z,100021.06
2022-08-03T20:24:56.417Z,100016.66
2022-08-03T20:27:01.206Z,100024.38
2022-08-03T20:29:09.902Z,100020.34
2022-08-03T20:31:12.986Z,100023.22
2022-08-03T20:33:19.100Z,100031.69
2022-08-03T20:35:21.954Z,100032.44
2022-08-03T20:37:24.026Z,100032.78
2022-08-03T20:39:26.691Z,100029.91
2022-08-03T20:41:30.725Z,100030.38
2022-08-03T20:43:34.186Z,100037.25
2022-08-03T20:45:58.430Z,100029.84
2022-08-03T20:48:05.316Z,100030.59
2022-08-03T20:50:09.166Z,100028.78
2022-08-03T20:52:18.403Z,100031.69
2022-08-03T20:54:29.486Z,100037.53
2022-08-03T20:56:38.805Z,100027.00
2022-08-03T20:58:42.886Z,100027.44
2022-08-03T21:00:54.322Z,100030.53
2022-08-03T21:02:57.620Z,100032.25
2022-08-03T21:05:08.556Z,100033.44
2022-08-03T21:07:19.509Z,100040.41
2022-08-03T21:09:39.875Z,100036.72
2022-08-03T21:11:51.957Z,100040.13
2022-08-03T21:12:55.449Z,99976.03
2022-08-03T21:13:03.414Z,100010.41
2022-08-03T21:14:15.870Z,100042.19
2022-08-03T21:16:20.466Z,100033.34
2022-08-03T21:18:23.667Z,100035.06
2022-08-03T21:20:32.049Z,100040.84
2022-08-03T21:22:38.359Z,100042.25
2022-08-03T21:24:42.694Z,100037.72
2022-08-03T21:26:49.939Z,100038.47
2022-08-03T21:28:59.904Z,100035.66
2022-08-03T21:31:02.381Z,100036.31
2022-08-03T21:33:05.602Z,100039.59
2022-08-03T21:35:11.791Z,100034.00
2022-08-03T21:37:15.975Z,100029.28
2022-08-03T21:39:20.774Z,100032.94
2022-08-03T21:41:29.965Z,100029.25
2022-08-03T21:43:32.708Z,100036.59
2022-08-03T21:46:03.637Z,100044.69
2022-08-03T21:48:07.323Z,100043.59
2022-08-03T21:50:13.061Z,100047.63
2022-08-03T21:52:16.355Z,100048.63
2022-08-03T21:54:21.078Z,100040.09
2022-08-03T21:56:47.715Z,100034.88
2022-08-03T21:59:16.856Z,100036.41
2022-08-03T22:01:39.910Z,100033.38
2022-08-03T22:06:39.881Z,100025.63
2022-08-03T22:08:47.126Z,100048.34
2022-08-03T22:13:49.244Z,100033.75
2022-08-03T22:16:09.464Z,100049.47
2022-08-03T22:18:19.220Z,100050.84
2022-08-03T22:20:38.766Z,100048.06
2022-08-03T22:22:44.338Z,100050.16
2022-08-03T22:25:18.463Z,100057.34
2022-08-03T22:27:22.531Z,100043.13
2022-08-03T22:29:46.218Z,100053.16
2022-08-03T22:31:58.685Z,100029.41
2022-08-03T22:34:02.083Z,100048.59
2022-08-03T22:36:04.987Z,100034.34
2022-08-03T22:38:09.905Z,100045.06
2022-08-03T22:40:14.868Z,100051.69
2022-08-03T22:42:19.934Z,100033.53
2022-08-03T22:44:22.291Z,100051.56
2022-08-03T22:46:27.398Z,100055.44
2022-08-03T22:48:34.186Z,100052.06
2022-08-03T22:50:37.316Z,100046.47
2022-08-03T22:52:44.059Z,100044.97
2022-08-03T22:54:46.982Z,100046.81
2022-08-03T22:56:51.600Z,100053.09
2022-08-03T22:58:54.380Z,100051.09
2022-08-03T23:01:07.567Z,100049.72
2022-08-03T23:03:10.237Z,100039.72
2022-08-03T23:06:00.991Z,100047.03
2022-08-03T23:07:45.635Z,100048.03
2022-08-03T23:09:49.157Z,100052.44
2022-08-03T23:11:55.424Z,100056.69
2022-08-03T23:13:59.434Z,100048.03
2022-08-03T23:16:06.035Z,100051.78
2022-08-03T23:18:09.840Z,100052.09
2022-08-03T23:20:14.031Z,100050.06
2022-08-03T23:22:29.365Z,100051.25
2022-08-03T23:24:36.713Z,100041.09
2022-08-03T23:26:39.816Z,100052.94
2022-08-03T23:28:46.741Z,100046.69
2022-08-03T23:30:50.275Z,100035.97
2022-08-03T23:32:54.911Z,100046.16
2022-08-03T23:35:03.122Z,100050.91
2022-08-03T23:37:05.917Z,100045.09
2022-08-03T23:39:09.321Z,100042.22
2022-08-03T23:41:13.168Z,100033.56
2022-08-03T23:43:18.945Z,100045.09
2022-08-03T23:45:40.237Z,100045.31
2022-08-03T23:47:46.302Z,100046.66
2022-08-03T23:49:49.872Z,100046.97
2022-08-03T23:52:43.115Z,100050.88
2022-08-03T23:55:15.474Z,100054.28
2022-08-03T23:57:37.436Z,100053.59
2022-08-03T23:59:44.397Z,100059.16
